Time;durP1;ratioP1;P1;durP2;ratioP2;P2;SDS_P1;SDS_P2;PMS_P1;PMS_P2;Temp;Humidity;BMP_temperature;BMP_pressure;BME280_temperature;BME280_humidity;BME280_pressure;Samples;Min_cycle;Max_cycle;Signal;HPM_P1;HPM_P2
2023/08/24 00:02:02;;;;;;;9.18;1.98;;;17.10;99.90;;;;;;5076150;28;20246;-75
2023/08/24 00:04:33;;;;;;;6.95;1.73;;;17.00;99.90;;;;;;5076201;28;20193;-76
2023/08/24 00:07:05;;;;;;;6.45;1.35;;;17.00;99.90;;;;;;5076095;28;20232;-77
2023/08/24 00:09:38;;;;;;;7.78;1.73;;;16.90;99.90;;;;;;5076073;28;20189;-76
2023/08/24 00:12:09;;;;;;;4.63;1.35;;;16.70;99.90;;;;;;5075833;28;20236;-76
2023/08/24 00:14:40;;;;;;;4.80;1.55;;;16.60;99.90;;;;;;5093471;28;20221;-76
2023/08/24 00:17:11;;;;;;;3.67;1.25;;;16.70;99.90;;;;;;5096363;28;20200;-76
2023/08/24 00:19:42;;;;;;;4.85;1.33;;;16.80;99.90;;;;;;5096083;28;20192;-76
2023/08/24 00:22:13;;;;;;;5.05;1.70;;;16.70;99.90;;;;;;5096109;28;20199;-76
2023/08/24 00:24:46;;;;;;;7.88;1.50;;;16.70;99.90;;;;;;5095845;28;20228;-76
2023/08/24 00:27:16;;;;;;;6.45;1.42;;;16.70;99.90;;;;;;5095836;28;20193;-76
2023/08/24 00:29:47;;;;;;;3.67;1.40;;;16.70;99.90;;;;;;5095882;28;20188;-76
2023/08/24 00:32:18;;;;;;;4.97;1.67;;;16.60;99.90;;;;;;5095968;28;20192;-76
2023/08/24 00:34:48;;;;;;;6.38;1.50;;;16.60;99.90;;;;;;5095936;28;20236;-76
2023/08/24 00:37:19;;;;;;;4.22;1.50;;;16.70;99.90;;;;;;5095747;28;20185;-76
2023/08/24 00:39:52;;;;;;;4.68;1.50;;;16.60;99.90;;;;;;5095875;28;20218;-76
2023/08/24 00:42:23;;;;;;;5.68;1.48;;;16.60;99.90;;;;;;5093583;28;20612;-76
2023/08/24 00:44:53;;;;;;;5.28;1.33;;;16.60;99.90;;;;;;5095838;28;20188;-76
2023/08/24 00:47:24;;;;;;;5.95;1.92;;;16.60;99.90;;;;;;5095794;28;20564;-76
2023/08/24 00:49:55;;;;;;;3.30;1.40;;;16.60;99.90;;;;;;5095422;28;20189;-76
2023/08/24 00:52:31;;;;;;;4.80;1.40;;;16.60;99.90;;;;;;5095702;28;20207;-76
2023/08/24 00:55:05;;;;;;;6.50;1.70;;;16.60;99.90;;;;;;5095389;28;20226;-76
2023/08/24 00:57:38;;;;;;;8.23;1.63;;;16.60;99.90;;;;;;5095974;28;20195;-76
2023/08/24 01:00:11;;;;;;;6.93;1.60;;;16.60;99.90;;;;;;5095643;28;20188;-76
2023/08/24 01:02:42;;;;;;;7.10;1.58;;;16.60;99.90;;;;;;5095287;28;20193;-76
2023/08/24 01:05:13;;;;;;;4.28;1.60;;;16.70;99.90;;;;;;5095392;28;20192;-76
2023/08/24 01:07:44;;;;;;;5.25;1.50;;;16.90;99.90;;;;;;5095358;28;20200;-76
2023/08/24 01:10:17;;;;;;;7.75;1.58;;;17.00;99.90;;;;;;5094739;28;20672;-76
2023/08/24 01:13:04;;;;;;;5.45;1.58;;;17.10;99.90;;;;;;5095226;28;20211;-76
2023/08/24 01:15:40;;;;;;;5.38;1.33;;;17.10;99.90;;;;;;5095071;28;20216;-76
2023/08/24 01:18:16;;;;;;;5.38;1.50;;;17.10;99.90;;;;;;5095220;28;20210;-77
2023/08/24 01:20:48;;;;;;;6.28;1.60;;;17.20;99.90;;;;;;5095206;28;20278;-77
2023/08/24 01:23:42;;;;;;;8.05;1.90;;;17.20;99.90;;;;;;5094939;28;20195;-77
2023/08/24 01:26:19;;;;;;;6.40;1.50;;;17.30;99.90;;;;;;5095231;28;20199;-76
2023/08/24 01:28:50;;;;;;;5.25;1.40;;;17.30;99.90;;;;;;5094784;28;20640;-77
2023/08/24 01:31:21;;;;;;;10.15;1.73;;;17.50;99.90;;;;;;5094688;28;20237;-76
2023/08/24 01:33:52;;;;;;;5.43;1.40;;;17.60;99.90;;;;;;5094611;28;20199;-77
2023/08/24 01:36:22;;;;;;;4.05;1.60;;;17.80;99.90;;;;;;5094755;28;20218;-76
2023/08/24 01:39:06;;;;;;;5.95;1.27;;;17.90;99.90;;;;;;5094551;28;20194;-76
2023/08/24 01:41:42;;;;;;;4.70;1.30;;;18.10;99.90;;;;;;5094928;28;20192;-77
2023/08/24 01:44:17;;;;;;;6.00;1.30;;;18.30;99.90;;;;;;5093425;28;20196;-77
2023/08/24 01:46:49;;;;;;;4.47;1.38;;;18.60;99.90;;;;;;5094587;28;20188;-76
2023/08/24 01:49:23;;;;;;;6.72;1.15;;;18.90;99.90;;;;;;5094400;28;20184;-76
2023/08/24 01:51:54;;;;;;;4.57;1.30;;;19.10;99.90;;;;;;5094424;28;20188;-77
2023/08/24 01:54:25;;;;;;;4.78;1.20;;;19.20;99.90;;;;;;5094030;28;20528;-76
2023/08/24 01:56:58;;;;;;;4.53;1.20;;;19.30;99.90;;;;;;5094238;28;20651;-77
2023/08/24 01:59:29;;;;;;;5.38;1.20;;;19.50;99.90;;;;;;5094269;28;20188;-76
2023/08/24 02:01:59;;;;;;;3.78;1.23;;;19.60;99.90;;;;;;5093377;28;20193;-77
2023/08/24 02:04:30;;;;;;;4.80;1.65;;;19.70;99.90;;;;;;5094100;28;20654;-78
2023/08/24 02:07:01;;;;;;;3.92;1.30;;;19.50;99.90;;;;;;5093824;28;20193;-77
2023/08/24 02:09:31;;;;;;;5.20;1.30;;;19.00;99.90;;;;;;5094243;28;20191;-77
2023/08/24 02:12:04;;;;;;;4.72;1.40;;;18.70;99.90;;;;;;5094112;28;20281;-78
2023/08/24 02:14:35;;;;;;;5.13;1.10;;;18.70;99.90;;;;;;5094155;28;20184;-77
2023/08/24 02:17:06;;;;;;;6.82;1.33;;;18.60;99.90;;;;;;5093799;28;20637;-77
2023/08/24 02:19:36;;;;;;;5.45;1.30;;;18.40;99.90;;;;;;5093698;28;20188;-78
2023/08/24 02:22:07;;;;;;;6.40;1.30;;;18.30;99.90;;;;;;5092125;28;20193;-77
2023/08/24 02:24:38;;;;;;;3.17;1.00;;;18.20;99.90;;;;;;5093620;28;20224;-78
2023/08/24 02:27:11;;;;;;;4.63;1.10;;;18.10;99.90;;;;;;5093963;28;20242;-77
2023/08/24 02:29:41;;;;;;;4.85;1.10;;;18.00;99.90;;;;;;5093609;28;20644;-77
2023/08/24 02:32:12;;;;;;;5.13;1.38;;;17.80;99.90;;;;;;5093585;28;20196;-78
2023/08/24 02:34:43;;;;;;;5.70;1.20;;;17.80;99.90;;;;;;5093703;28;20571;-77
2023/08/24 02:37:13;;;;;;;3.05;1.20;;;17.70;99.90;;;;;;5093647;28;20193;-77
2023/08/24 02:39:44;;;;;;;3.85;1.50;;;17.60;99.90;;;;;;5093767;28;20185;-78
2023/08/24 02:42:17;;;;;;;2.35;1.00;;;17.50;99.90;;;;;;5093616;28;20185;-77
2023/08/24 02:44:47;;;;;;;4.35;0.95;;;17.40;99.90;;;;;;5093647;28;20184;-77
2023/08/24 02:47:18;;;;;;;3.00;0.95;;;17.40;99.90;;;;;;5093420;28;20301;-76
2023/08/24 02:49:49;;;;;;;3.33;1.20;;;17.30;99.90;;;;;;5093374;28;20199;-76
2023/08/24 02:52:20;;;;;;;3.05;1.10;;;17.30;99.90;;;;;;5093387;28;20184;-76
2023/08/24 02:54:50;;;;;;;3.17;1.00;;;17.30;99.90;;;;;;5093393;28;20624;-76
2023/08/24 02:57:23;;;;;;;3.78;0.85;;;17.20;99.90;;;;;;5093793;28;20188;-76
2023/08/24 02:59:54;;;;;;;3.88;1.10;;;17.20;99.90;;;;;;5093380;28;20185;-76
2023/08/24 03:02:24;;;;;;;5.53;1.10;;;17.20;99.90;;;;;;5093418;28;20188;-76
2023/08/24 03:04:55;;;;;;;4.70;1.10;;;17.20;99.90;;;;;;5093134;28;20199;-75
2023/08/24 03:07:26;;;;;;;4.10;1.25;;;17.20;99.90;;;;;;5093200;28;20279;-76
2023/08/24 03:09:57;;;;;;;3.80;1.10;;;17.20;99.90;;;;;;5093257;28;20215;-76
2023/08/24 03:12:29;;;;;;;9.85;1.10;;;17.20;99.90;;;;;;5093143;28;20278;-76
2023/08/24 03:15:00;;;;;;;2.90;0.90;;;17.20;99.90;;;;;;5097182;28;20184;-77
2023/08/24 03:17:31;;;;;;;3.53;0.98;;;17.30;99.90;;;;;;5097530;28;20184;-76
2023/08/24 03:20:02;;;;;;;3.47;1.13;;;17.30;99.90;;;;;;5097131;28;20204;-76
2023/08/24 03:22:33;;;;;;;4.68;1.20;;;17.30;99.90;;;;;;5097285;28;20548;-76
2023/08/24 03:25:04;;;;;;;4.30;1.15;;;17.40;99.90;;;;;;5097317;28;20228;-76
2023/08/24 03:27:37;;;;;;;3.70;1.20;;;17.40;99.90;;;;;;5097686;28;20639;-76
2023/08/24 03:30:08;;;;;;;4.15;1.23;;;17.40;99.90;;;;;;5097219;28;20224;-75
2023/08/24 03:32:39;;;;;;;4.45;1.10;;;17.50;99.90;;;;;;5097115;28;20632;-76
2023/08/24 03:35:10;;;;;;;4.13;0.90;;;17.40;99.90;;;;;;5096661;28;20212;-76
2023/08/24 03:37:41;;;;;;;2.95;1.00;;;17.40;99.90;;;;;;5089414;28;20201;-76
2023/08/24 03:40:13;;;;;;;3.15;0.90;;;17.40;99.90;;;;;;5090450;28;20200;-76
2023/08/24 03:42:45;;;;;;;2.83;0.98;;;17.40;99.90;;;;;;5083386;28;20554;-76
2023/08/24 03:45:16;;;;;;;3.90;1.00;;;17.40;99.90;;;;;;5076814;28;20220;-76
2023/08/24 03:47:47;;;;;;;3.92;0.90;;;17.40;99.90;;;;;;5076790;28;20216;-76
2023/08/24 03:50:18;;;;;;;1.83;0.90;;;17.40;99.90;;;;;;5086789;28;20196;-76
2023/08/24 03:52:48;;;;;;;3.17;1.30;;;17.40;99.90;;;;;;5089324;28;20199;-76
2023/08/24 03:55:19;;;;;;;2.38;1.10;;;17.40;99.90;;;;;;5078155;28;20220;-76
2023/08/24 03:57:54;;;;;;;5.90;1.15;;;17.50;99.90;;;;;;5094269;28;20558;-76
2023/08/24 04:00:26;;;;;;;4.13;1.10;;;17.50;99.90;;;;;;5096472;28;20187;-77
2023/08/24 04:02:56;;;;;;;2.17;1.10;;;17.60;99.90;;;;;;5094136;28;20192;-76
2023/08/24 04:05:27;;;;;;;2.92;1.00;;;17.70;99.90;;;;;;5096303;28;20660;-76
2023/08/24 04:07:58;;;;;;;2.83;0.88;;;17.70;99.90;;;;;;5096252;28;20196;-76
2023/08/24 04:10:29;;;;;;;3.58;0.75;;;18.00;99.90;;;;;;5095356;28;20606;-75
2023/08/24 04:13:02;;;;;;;3.00;0.80;;;18.20;99.90;;;;;;5089607;28;20193;-76
2023/08/24 04:15:33;;;;;;;4.20;1.15;;;18.40;99.90;;;;;;5096590;28;20223;-76
2023/08/24 04:18:03;;;;;;;1.63;0.70;;;18.50;99.90;;;;;;5092159;28;20207;-75
2023/08/24 04:20:34;;;;;;;3.70;1.00;;;18.60;99.90;;;;;;5075959;28;20193;-75
2023/08/24 04:23:07;;;;;;;2.65;0.88;;;18.70;99.90;;;;;;5088724;28;20201;-76
2023/08/24 04:25:41;;;;;;;2.13;0.80;;;18.60;99.90;;;;;;5081469;28;20692;-76
2023/08/24 04:28:14;;;;;;;3.92;1.20;;;18.50;99.90;;;;;;5090278;28;20770;-75
2023/08/24 04:30:51;;;;;;;2.13;0.80;;;18.30;99.90;;;;;;5092486;28;20188;-75
2023/08/24 04:33:22;;;;;;;3.60;0.98;;;18.30;99.90;;;;;;5079943;28;20207;-77
2023/08/24 04:35:53;;;;;;;3.60;0.90;;;18.20;99.90;;;;;;5075410;28;20217;-76
2023/08/24 04:38:24;;;;;;;1.35;0.90;;;18.20;99.90;;;;;;5080984;28;20196;-75
2023/08/24 04:40:56;;;;;;;3.13;0.88;;;18.20;99.90;;;;;;5095820;28;20196;-75
2023/08/24 04:43:29;;;;;;;2.28;1.00;;;18.30;99.90;;;;;;5085059;28;20189;-76
2023/08/24 04:45:59;;;;;;;4.20;0.90;;;18.30;99.90;;;;;;5091877;28;20280;-76
2023/08/24 04:48:32;;;;;;;2.40;0.90;;;18.30;99.90;;;;;;5077092;28;20648;-74
2023/08/24 04:51:03;;;;;;;2.88;0.80;;;18.30;99.90;;;;;;5091304;28;20693;-77
2023/08/24 04:53:34;;;;;;;1.40;0.90;;;18.40;99.90;;;;;;5075396;28;20606;-79
2023/08/24 04:56:05;;;;;;;4.30;0.80;;;18.30;99.90;;;;;;5089822;28;20212;-79
2023/08/24 04:58:38;;;;;;;3.25;1.08;;;18.30;99.90;;;;;;5075290;28;20200;-74
2023/08/24 05:01:10;;;;;;;2.15;0.70;;;18.20;99.90;;;;;;5074450;28;20201;-72
2023/08/24 05:03:41;;;;;;;3.95;0.90;;;18.20;99.90;;;;;;5074797;28;20527;-75
2023/08/24 05:06:11;;;;;;;2.67;0.90;;;18.20;99.90;;;;;;5079720;28;20200;-77
2023/08/24 05:08:42;;;;;;;2.50;1.02;;;18.20;99.90;;;;;;5075509;28;20204;-73
2023/08/24 05:11:17;;;;;;;3.28;1.40;;;18.10;99.90;;;;;;5074801;28;20711;-78
2023/08/24 05:13:50;;;;;;;4.25;0.98;;;18.10;99.90;;;;;;5078384;28;20236;-74
2023/08/24 05:16:21;;;;;;;3.10;0.90;;;18.00;99.90;;;;;;5092420;28;20596;-77
2023/08/24 05:18:52;;;;;;;2.22;0.88;;;18.00;99.90;;;;;;5092385;28;20196;-75
2023/08/24 05:21:23;;;;;;;3.72;1.10;;;18.00;99.90;;;;;;5093600;28;20210;-74
2023/08/24 05:23:54;;;;;;;3.88;0.95;;;18.00;99.90;;;;;;5086209;28;20224;-79
2023/08/24 05:26:25;;;;;;;2.30;0.80;;;18.00;99.90;;;;;;5075003;28;20688;-80
2023/08/24 05:28:59;;;;;;;3.42;0.90;;;18.00;99.90;;;;;;5076511;28;20197;-73
2023/08/24 05:31:30;;;;;;;2.45;0.90;;;18.10;99.90;;;;;;5076181;28;20621;-76
2023/08/24 05:34:02;;;;;;;3.38;0.90;;;18.10;99.90;;;;;;5094689;28;20536;-74
2023/08/24 05:36:33;;;;;;;3.88;1.00;;;18.10;99.90;;;;;;5086570;28;20767;-78
2023/08/24 05:39:04;;;;;;;2.33;1.00;;;18.10;99.90;;;;;;5082793;28;20555;-79
2023/08/24 05:41:36;;;;;;;2.55;0.80;;;18.20;99.90;;;;;;5087854;28;20203;-74
2023/08/24 05:44:09;;;;;;;2.30;0.90;;;18.10;99.90;;;;;;5074266;28;20268;-79
2023/08/24 05:46:40;;;;;;;4.30;1.10;;;18.10;99.90;;;;;;5076731;28;20208;-76
2023/08/24 05:49:11;;;;;;;1.45;0.80;;;18.00;99.90;;;;;;5088674;28;20189;-76
2023/08/24 05:51:42;;;;;;;2.28;1.00;;;17.90;99.90;;;;;;5092129;28;20200;-75
2023/08/24 05:54:18;;;;;;;1.90;1.00;;;17.80;99.90;;;;;;5074818;28;20200;-77
2023/08/24 05:56:49;;;;;;;2.75;0.88;;;17.80;99.90;;;;;;5089046;28;20764;-80
2023/08/24 05:59:23;;;;;;;4.25;1.65;;;17.80;99.90;;;;;;5087522;28;20196;-79
2023/08/24 06:01:54;;;;;;;1.67;0.90;;;17.80;99.90;;;;;;5073989;28;20190;-79
2023/08/24 06:04:25;;;;;;;2.17;0.88;;;17.70;99.90;;;;;;5073775;28;20218;-74
2023/08/24 06:06:56;;;;;;;4.90;0.90;;;17.60;99.90;;;;;;5077846;28;20197;-77
2023/08/24 06:09:28;;;;;;;3.92;1.00;;;17.60;99.90;;;;;;5086969;28;20204;-79
2023/08/24 06:11:59;;;;;;;2.03;1.00;;;17.50;99.90;;;;;;5076977;28;20270;-75
2023/08/24 06:14:32;;;;;;;2.95;0.98;;;17.50;99.90;;;;;;5073446;28;20197;-79
2023/08/24 06:17:03;;;;;;;2.42;0.88;;;17.60;99.90;;;;;;5085801;28;20227;-76
2023/08/24 06:19:34;;;;;;;2.75;0.88;;;17.60;99.90;;;;;;5082911;28;20197;-73
2023/08/24 06:22:05;;;;;;;2.97;1.40;;;17.60;99.90;;;;;;5090820;28;20222;-78
2023/08/24 06:24:36;;;;;;;1.65;0.80;;;17.70;99.90;;;;;;5081354;28;20243;-75
2023/08/24 06:27:08;;;;;;;1.35;1.00;;;17.70;99.90;;;;;;5073413;28;20641;-80
2023/08/24 06:29:44;;;;;;;2.50;1.00;;;17.70;99.90;;;;;;5073463;28;20189;-82
2023/08/24 06:32:16;;;;;;;1.77;0.95;;;17.70;99.90;;;;;;5086468;28;20219;-79
2023/08/24 06:34:47;;;;;;;2.70;1.00;;;17.60;99.90;;;;;;5084718;28;20185;-80
2023/08/24 06:37:18;;;;;;;4.72;1.20;;;17.50;99.90;;;;;;5083249;28;20223;-81
2023/08/24 06:39:49;;;;;;;3.50;0.90;;;17.50;99.90;;;;;;5090687;28;20635;-77
2023/08/24 06:42:20;;;;;;;3.60;0.85;;;17.40;99.90;;;;;;5093476;28;20188;-75
2023/08/24 06:44:53;;;;;;;2.08;1.10;;;17.40;99.90;;;;;;5091768;28;20202;-75
2023/08/24 06:47:24;;;;;;;2.92;1.00;;;17.30;99.90;;;;;;5088452;28;20192;-75
2023/08/24 06:49:55;;;;;;;2.83;1.00;;;17.30;99.90;;;;;;5073080;28;20201;-76
2023/08/24 06:52:27;;;;;;;2.17;1.00;;;17.30;99.90;;;;;;5083856;28;20566;-77
2023/08/24 06:54:58;;;;;;;2.92;1.23;;;17.20;99.90;;;;;;5092217;28;20660;-75
2023/08/24 06:57:29;;;;;;;3.38;0.98;;;17.20;99.90;;;;;;5092920;28;20213;-76
2023/08/24 07:00:06;;;;;;;2.40;1.20;;;17.10;99.90;;;;;;5093851;28;20196;-78
2023/08/24 07:02:37;;;;;;;2.70;1.20;;;17.00;99.90;;;;;;5086425;28;20543;-78
2023/08/24 07:05:09;;;;;;;3.15;1.33;;;17.00;99.90;;;;;;5081126;28;20284;-75
2023/08/24 07:07:40;;;;;;;1.77;0.95;;;16.90;99.90;;;;;;5076920;28;20644;-76
2023/08/24 07:10:12;;;;;;;2.10;1.10;;;16.90;99.90;;;;;;5093079;28;20184;-76
2023/08/24 07:12:44;;;;;;;3.92;1.15;;;16.80;99.90;;;;;;5088175;28;20762;-72
2023/08/24 07:15:17;;;;;;;2.80;0.90;;;16.70;99.90;;;;;;5077162;28;20239;-78
2023/08/24 07:17:48;;;;;;;3.92;1.10;;;16.60;99.90;;;;;;5092996;28;20691;-76
2023/08/24 07:20:20;;;;;;;4.72;1.10;;;16.60;99.90;;;;;;5089132;28;20200;-72
2023/08/24 07:22:51;;;;;;;1.98;1.00;;;16.50;99.90;;;;;;5087197;28;20253;-75
2023/08/24 07:25:22;;;;;;;2.00;1.08;;;16.40;99.90;;;;;;5076607;28;20729;-76
2023/08/24 07:27:57;;;;;;;2.22;1.20;;;16.30;99.90;;;;;;5079249;28;20242;-77
2023/08/24 07:30:31;;;;;;;3.75;1.60;;;16.30;99.90;;;;;;5092874;28;20195;-77
2023/08/24 07:33:02;;;;;;;4.50;2.03;;;16.20;99.90;;;;;;5086289;28;20675;-76
2023/08/24 07:35:34;;;;;;;6.20;2.40;;;16.10;99.90;;;;;;5082391;28;20225;-76
2023/08/24 07:38:05;;;;;;;5.07;2.20;;;16.10;99.90;;;;;;5079812;28;20223;-75
2023/08/24 07:40:37;;;;;;;3.97;1.92;;;16.00;99.90;;;;;;5074539;28;20189;-77
2023/08/24 07:43:08;;;;;;;3.03;1.92;;;16.00;99.90;;;;;;5087496;28;20188;-77
2023/08/24 07:45:41;;;;;;;4.50;1.90;;;15.90;99.90;;;;;;5092191;28;20204;-75
2023/08/24 07:48:12;;;;;;;3.30;1.55;;;15.90;99.90;;;;;;5090823;28;20296;-78
2023/08/24 07:50:43;;;;;;;6.18;1.50;;;15.90;99.90;;;;;;5090990;28;20196;-75
2023/08/24 07:53:14;;;;;;;1.95;1.30;;;15.90;99.90;;;;;;5083889;28;20196;-77
2023/08/24 07:55:46;;;;;;;4.07;1.63;;;15.80;99.90;;;;;;5086156;28;20192;-80
2023/08/24 07:58:17;;;;;;;3.00;2.00;;;15.80;99.90;;;;;;5078489;28;20220;-76
2023/08/24 08:00:53;;;;;;;5.45;3.28;;;15.70;99.90;;;;;;5094195;28;20195;-79
2023/08/24 08:03:25;;;;;;;5.43;3.33;;;15.70;99.90;;;;;;5080340;28;20578;-78
2023/08/24 08:05:58;;;;;;;3.83;2.22;;;15.70;99.90;;;;;;5090966;28;20275;-80
2023/08/24 08:08:29;;;;;;;5.10;1.92;;;15.60;99.90;;;;;;5082865;28;20283;-78
2023/08/24 08:11:03;;;;;;;2.97;1.65;;;15.50;99.90;;;;;;5084348;28;20228;-78
2023/08/24 08:13:34;;;;;;;4.65;1.70;;;15.50;99.90;;;;;;5092884;28;20204;-79
2023/08/24 08:16:08;;;;;;;2.70;1.80;;;15.40;99.90;;;;;;5081194;28;20200;-77
2023/08/24 08:18:40;;;;;;;3.50;2.10;;;15.40;99.90;;;;;;5093931;28;20212;-78
2023/08/24 08:21:20;;;;;;;4.50;1.85;;;15.40;99.90;;;;;;5077196;28;20197;-79
2023/08/24 08:23:51;;;;;;;4.13;1.67;;;15.40;99.90;;;;;;5076861;28;20250;-80
2023/08/24 08:26:22;;;;;;;2.60;1.80;;;15.30;99.90;;;;;;5082347;28;20196;-78
2023/08/24 08:28:53;;;;;;;3.47;1.60;;;15.20;99.90;;;;;;5081193;28;20577;-77
2023/08/24 08:31:26;;;;;;;4.85;1.92;;;15.30;99.90;;;;;;5087605;28;20184;-78
2023/08/24 08:33:57;;;;;;;4.22;1.90;;;15.20;99.90;;;;;;5094944;28;20188;-78
2023/08/24 08:36:28;;;;;;;4.35;2.17;;;15.10;99.90;;;;;;5082669;28;20196;-79
2023/08/24 08:38:59;;;;;;;4.00;1.98;;;15.10;99.90;;;;;;5075471;28;20197;-78
2023/08/24 08:41:33;;;;;;;6.55;2.25;;;15.10;99.90;;;;;;5090495;28;20550;-79
2023/08/24 08:44:12;;;;;;;4.32;2.15;;;15.00;99.90;;;;;;5085684;28;20200;-77
2023/08/24 08:46:46;;;;;;;3.40;2.08;;;15.00;99.90;;;;;;5075477;28;20189;-79
2023/08/24 08:49:19;;;;;;;4.47;2.40;;;15.00;99.90;;;;;;5076365;28;20201;-79
2023/08/24 08:51:50;;;;;;;6.25;3.05;;;14.90;99.90;;;;;;5084916;28;20200;-77
2023/08/24 08:54:21;;;;;;;5.20;2.55;;;14.90;99.90;;;;;;5093398;28;20233;-80
2023/08/24 08:56:52;;;;;;;4.93;2.70;;;14.90;99.90;;;;;;5095166;28;20552;-77
2023/08/24 08:59:26;;;;;;;4.25;2.70;;;14.80;99.90;;;;;;5080181;28;20222;-78
2023/08/24 09:02:00;;;;;;;4.85;3.00;;;14.80;99.90;;;;;;5084058;28;20204;-78
2023/08/24 09:04:32;;;;;;;5.50;2.60;;;14.80;99.90;;;;;;5093378;28;20548;-78
2023/08/24 09:07:10;;;;;;;5.13;2.55;;;14.80;99.90;;;;;;5085109;28;20200;-78
2023/08/24 09:09:41;;;;;;;7.25;2.90;;;14.80;99.90;;;;;;5081698;28;20640;-79
2023/08/24 09:12:12;;;;;;;4.05;2.80;;;14.70;99.90;;;;;;5091691;28;20239;-78
2023/08/24 09:14:43;;;;;;;4.60;3.38;;;14.60;99.90;;;;;;5082079;28;20199;-78
2023/08/24 09:17:23;;;;;;;5.70;3.78;;;14.60;99.90;;;;;;5078016;28;20213;-78
2023/08/24 09:20:00;;;;;;;6.18;3.78;;;14.50;99.90;;;;;;5081144;28;20204;-78
2023/08/24 09:22:37;;;;;;;4.82;3.65;;;14.40;99.90;;;;;;5074828;28;20268;-79
2023/08/24 09:25:08;;;;;;;5.95;3.67;;;14.40;99.90;;;;;;5085439;28;20195;-80
2023/08/24 09:27:39;;;;;;;6.22;3.70;;;14.40;99.90;;;;;;5088459;28;20199;-79
2023/08/24 09:30:11;;;;;;;4.80;3.33;;;14.30;99.90;;;;;;5080294;28;20197;-79
2023/08/24 09:32:44;;;;;;;4.03;2.60;;;14.20;99.90;;;;;;5086450;28;20557;-78
2023/08/24 09:35:16;;;;;;;4.70;2.58;;;14.20;99.90;;;;;;5074506;28;20205;-79
2023/08/24 09:37:47;;;;;;;3.55;2.55;;;14.10;99.90;;;;;;5076143;28;20303;-79
2023/08/24 09:40:17;;;;;;;4.25;2.30;;;14.20;99.90;;;;;;5079918;28;20201;-78
2023/08/24 09:42:48;;;;;;;5.25;2.72;;;14.10;99.90;;;;;;5082290;28;20189;-79
2023/08/24 09:45:19;;;;;;;5.90;2.53;;;14.10;99.90;;;;;;5085484;28;20188;-79
2023/08/24 09:47:53;;;;;;;7.20;2.88;;;14.00;99.90;;;;;;5075380;28;20657;-79
2023/08/24 09:50:24;;;;;;;4.20;2.40;;;14.00;99.90;;;;;;5083180;28;20195;-79
2023/08/24 09:53:00;;;;;;;4.70;2.83;;;14.00;99.90;;;;;;5084694;28;20240;-79
2023/08/24 09:55:36;;;;;;;4.88;2.90;;;14.00;99.90;;;;;;5083828;28;20199;-79
2023/08/24 09:58:08;;;;;;;6.68;2.90;;;13.90;99.90;;;;;;5081744;28;20216;-79
2023/08/24 10:00:40;;;;;;;5.93;2.72;;;13.90;99.90;;;;;;5076024;28;20196;-78
2023/08/24 10:03:14;;;;;;;3.80;2.80;;;13.90;99.90;;;;;;5080490;28;20657;-76
2023/08/24 10:05:45;;;;;;;4.65;2.80;;;13.90;99.90;;;;;;5075450;28;20193;-77
2023/08/24 10:08:18;;;;;;;5.93;2.85;;;13.90;99.90;;;;;;5082956;28;20612;-76
2023/08/24 10:10:52;;;;;;;4.53;2.75;;;13.90;99.90;;;;;;5079029;28;20231;-75
2023/08/24 10:13:32;;;;;;;5.55;2.90;;;13.90;99.90;;;;;;5082046;28;20632;-75
2023/08/24 10:16:03;;;;;;;4.10;2.60;;;13.80;99.90;;;;;;5081571;28;20198;-74
2023/08/24 10:18:36;;;;;;;6.15;2.63;;;13.80;99.90;;;;;;5085508;28;20219;-78
2023/08/24 10:21:07;;;;;;;4.63;2.42;;;13.80;99.90;;;;;;5086360;28;20200;-74
2023/08/24 10:23:40;;;;;;;5.50;2.40;;;13.80;99.90;;;;;;5078974;28;20221;-74
2023/08/24 10:26:13;;;;;;;3.42;2.10;;;13.80;99.90;;;;;;5081685;28;20313;-74
2023/08/24 10:28:44;;;;;;;5.55;2.00;;;13.80;99.90;;;;;;5078871;28;20192;-74
2023/08/24 10:31:15;;;;;;;3.42;2.05;;;13.80;99.90;;;;;;5074969;28;20197;-75
2023/08/24 10:33:49;;;;;;;4.10;2.00;;;13.80;99.90;;;;;;5078019;28;20199;-73
2023/08/24 10:36:21;;;;;;;4.38;2.13;;;13.80;99.90;;;;;;5086036;28;20210;-76
2023/08/24 10:38:52;;;;;;;4.45;1.95;;;13.80;99.90;;;;;;5088853;28;20212;-74
2023/08/24 10:41:23;;;;;;;3.58;2.00;;;13.70;99.90;;;;;;5081667;28;20234;-76
2023/08/24 10:43:53;;;;;;;4.10;1.90;;;13.70;99.90;;;;;;5081579;28;20196;-77
2023/08/24 10:46:24;;;;;;;4.53;2.17;;;13.70;99.90;;;;;;5073004;28;20570;-75
2023/08/24 10:49:07;;;;;;;4.03;2.30;;;13.70;99.90;;;;;;5073191;28;20646;-73
2023/08/24 10:51:47;;;;;;;4.70;2.60;;;13.60;99.90;;;;;;5078819;28;20558;-73
2023/08/24 10:54:19;;;;;;;3.90;2.28;;;13.60;99.90;;;;;;5074665;28;20660;-73
2023/08/24 10:56:58;;;;;;;5.20;2.53;;;13.50;99.90;;;;;;5072724;28;20205;-74
2023/08/24 10:59:38;;;;;;;4.22;2.97;;;13.50;99.90;;;;;;5073555;28;20310;-73
2023/08/24 11:02:19;;;;;;;4.20;2.47;;;13.50;99.90;;;;;;5073788;28;20228;-73
2023/08/24 11:05:09;;;;;;;4.82;2.75;;;13.40;99.90;;;;;;5078669;28;20204;-75
2023/08/24 11:07:52;;;;;;;5.93;2.65;;;13.40;99.90;;;;;;5082147;28;20202;-73
2023/08/24 11:10:24;;;;;;;5.38;2.72;;;13.40;99.90;;;;;;5085602;28;20652;-74
2023/08/24 11:13:14;;;;;;;6.75;2.80;;;13.40;99.90;;;;;;5077813;28;20197;-73
2023/08/24 11:15:46;;;;;;;5.32;2.50;;;13.30;99.90;;;;;;5081413;28;20649;-73
2023/08/24 11:18:26;;;;;;;4.30;2.50;;;13.30;99.90;;;;;;5072557;28;20578;-72
2023/08/24 11:21:02;;;;;;;4.72;2.55;;;13.30;99.90;;;;;;5072316;28;20543;-72
2023/08/24 11:23:33;;;;;;;6.32;2.92;;;13.30;99.90;;;;;;5081573;28;20221;-74
2023/08/24 11:26:04;;;;;;;6.20;3.13;;;13.30;99.90;;;;;;5074102;28;20207;-74
2023/08/24 11:28:35;;;;;;;5.90;3.00;;;13.30;99.90;;;;;;5073831;28;20196;-75
2023/08/24 11:31:07;;;;;;;5.75;3.03;;;13.30;99.90;;;;;;5082927;28;20219;-75
2023/08/24 11:33:38;;;;;;;4.47;2.78;;;13.20;99.90;;;;;;5071987;28;20205;-72
2023/08/24 11:36:12;;;;;;;7.82;3.30;;;13.20;99.90;;;;;;5076258;28;20202;-72
2023/08/24 11:38:44;;;;;;;5.50;3.30;;;13.20;99.90;;;;;;5082467;28;20694;-73
2023/08/24 11:41:16;;;;;;;5.93;3.42;;;13.20;99.90;;;;;;5085433;28;20195;-72
2023/08/24 11:43:47;;;;;;;3.60;2.40;;;13.10;99.90;;;;;;5081100;28;20676;-73
2023/08/24 11:46:20;;;;;;;5.13;2.55;;;13.10;99.90;;;;;;5083129;28;20196;-73
2023/08/24 11:48:51;;;;;;;5.10;2.03;;;13.10;99.90;;;;;;5076106;28;20197;-75
2023/08/24 11:51:23;;;;;;;4.03;2.17;;;13.10;99.90;;;;;;5075387;28;20649;-73
2023/08/24 11:53:54;;;;;;;5.03;2.17;;;13.10;99.90;;;;;;5085822;28;20200;-73
2023/08/24 11:56:25;;;;;;;2.72;2.00;;;13.00;99.90;;;;;;5084292;28;20200;-73
2023/08/24 11:58:55;;;;;;;3.33;2.00;;;13.00;99.90;;;;;;5082144;28;20552;-74
2023/08/24 12:01:27;;;;;;;3.33;2.00;;;13.00;99.90;;;;;;5081816;28;20199;-74
2023/08/24 12:03:59;;;;;;;2.30;1.80;;;13.00;99.90;;;;;;5078991;28;20561;-73
2023/08/24 12:06:31;;;;;;;4.13;2.00;;;13.00;99.90;;;;;;5085082;28;20192;-72
2023/08/24 12:09:02;;;;;;;6.03;2.10;;;12.90;99.90;;;;;;5080586;28;20201;-78
2023/08/24 12:11:39;;;;;;;3.78;2.08;;;12.90;99.90;;;;;;5075673;28;20753;-74
2023/08/24 12:14:18;;;;;;;4.93;2.53;;;12.90;99.90;;;;;;5079205;28;20207;-74
2023/08/24 12:16:53;;;;;;;4.10;2.10;;;12.90;99.90;;;;;;5092416;28;20207;-75
2023/08/24 12:19:25;;;;;;;4.82;2.25;;;12.90;99.90;;;;;;5079349;28;20763;-78
2023/08/24 12:21:58;;;;;;;4.03;2.20;;;12.90;99.90;;;;;;5078814;28;20578;-77
2023/08/24 12:24:29;;;;;;;4.93;2.20;;;12.80;99.90;;;;;;5087132;28;20185;-77
2023/08/24 12:27:03;;;;;;;4.28;2.42;;;12.80;99.90;;;;;;5090564;28;20564;-77
2023/08/24 12:29:34;;;;;;;4.25;2.30;;;12.80;99.90;;;;;;5075804;28;20253;-77
2023/08/24 12:32:04;;;;;;;3.53;2.20;;;12.80;99.90;;;;;;5085270;28;20200;-76
2023/08/24 12:34:35;;;;;;;4.32;2.30;;;12.80;99.90;;;;;;5087186;28;20207;-76
2023/08/24 12:37:08;;;;;;;3.83;2.17;;;12.80;99.90;;;;;;5082450;28;20210;-76
2023/08/24 12:39:40;;;;;;;3.85;2.22;;;12.80;99.90;;;;;;5084601;28;20220;-77
2023/08/24 12:42:10;;;;;;;2.78;2.10;;;12.80;99.90;;;;;;5082822;28;20201;-77
2023/08/24 12:44:41;;;;;;;3.58;2.10;;;12.80;99.90;;;;;;5078892;28;20195;-77
2023/08/24 12:47:12;;;;;;;4.13;1.98;;;12.80;99.90;;;;;;5094889;28;20656;-77
2023/08/24 12:49:42;;;;;;;5.47;2.40;;;12.80;99.90;;;;;;5095672;28;20192;-76
2023/08/24 12:52:16;;;;;;;5.40;2.28;;;12.70;99.90;;;;;;5077222;28;20200;-77
2023/08/24 12:54:46;;;;;;;3.13;2.15;;;12.70;99.90;;;;;;5095216;28;20564;-78
2023/08/24 12:57:17;;;;;;;3.42;2.30;;;12.70;99.90;;;;;;5095485;28;20675;-76
2023/08/24 12:59:48;;;;;;;2.88;2.10;;;12.70;99.90;;;;;;5088784;28;20227;-76
2023/08/24 13:02:19;;;;;;;5.75;2.17;;;12.70;99.90;;;;;;5095433;28;20188;-76
2023/08/24 13:04:49;;;;;;;3.80;2.08;;;12.70;99.90;;;;;;5095558;28;20184;-77
2023/08/24 13:07:22;;;;;;;5.95;2.30;;;12.60;99.90;;;;;;5094765;28;20196;-77
2023/08/24 13:09:53;;;;;;;4.45;2.40;;;12.60;99.90;;;;;;5095434;28;20655;-77
2023/08/24 13:12:24;;;;;;;7.22;3.08;;;12.60;99.90;;;;;;5092443;28;20234;-76
2023/08/24 13:14:54;;;;;;;5.05;2.85;;;12.50;99.90;;;;;;5074634;28;20189;-76